createdAt,value
2023-02-05T00:00:46.187Z,58.70
2023-02-05T00:03:13.282Z,58.40
2023-02-05T00:05:39.954Z,58.40
2023-02-05T00:08:06.775Z,61.40
2023-02-05T00:10:33.817Z,59.80
2023-02-05T00:13:00.539Z,62.60
2023-02-05T00:15:27.321Z,59.30
2023-02-05T00:17:53.983Z,64.90
2023-02-05T00:20:20.807Z,60.00
2023-02-05T00:22:47.545Z,60.10
2023-02-05T00:25:14.153Z,65.70
2023-02-05T00:27:40.934Z,63.00
2023-02-05T00:30:08.388Z,58.90
2023-02-05T00:32:35.135Z,58.30
2023-02-05T00:35:01.848Z,58.70
2023-02-05T00:37:28.446Z,58.50
2023-02-05T00:39:55.099Z,58.30
2023-02-05T00:42:21.768Z,59.70
2023-02-05T00:44:48.528Z,59.40
2023-02-05T00:47:15.212Z,59.20
2023-02-05T00:49:41.980Z,59.10
2023-02-05T00:52:08.906Z,58.60
2023-02-05T00:54:35.596Z,58.40
2023-02-05T00:57:02.352Z,59.40
2023-02-05T00:59:28.945Z,58.70
2023-02-05T01:01:55.534Z,59.80
2023-02-05T01:04:22.187Z,58.40
2023-02-05T01:06:48.800Z,58.40
2023-02-05T01:09:15.461Z,58.10
2023-02-05T01:11:42.105Z,58.20
2023-02-05T01:14:08.794Z,58.30
2023-02-05T01:16:35.396Z,59.00
2023-02-05T01:19:02.007Z,58.30
2023-02-05T01:21:29.384Z,58.30
2023-02-05T01:23:57.709Z,58.60
2023-02-05T01:26:24.356Z,58.90
2023-02-05T01:28:51.502Z,58.40
2023-02-05T01:31:20.215Z,58.80
2023-02-05T01:33:46.948Z,58.50
2023-02-05T01:36:13.619Z,58.40
2023-02-05T01:38:40.238Z,59.90
2023-02-05T01:41:09.090Z,58.60
2023-02-05T01:43:35.812Z,57.70
2023-02-05T01:46:20.586Z,57.60
2023-02-05T01:48:50.816Z,57.60
2023-02-05T01:51:18.038Z,57.60
2023-02-05T01:53:47.909Z,58.20
2023-02-05T01:56:18.960Z,57.40
2023-02-05T01:59:09.500Z,57.30
2023-02-05T02:01:37.500Z,57.30
2023-02-05T02:04:05.063Z,57.30
2023-02-05T02:06:34.223Z,57.20
2023-02-05T02:09:02.027Z,57.70
2023-02-05T02:11:31.998Z,57.20
2023-02-05T02:14:01.724Z,57.10
2023-02-05T02:16:29.600Z,57.10
2023-02-05T02:18:56.989Z,57.20
2023-02-05T02:21:53.099Z,57.20
2023-02-05T02:24:24.676Z,57.10
2023-02-05T02:27:09.888Z,57.20
2023-02-05T02:29:48.588Z,57.00
2023-02-05T02:32:27.085Z,57.00
2023-02-05T02:35:06.036Z,57.00
2023-02-05T02:37:55.651Z,57.00
2023-02-05T02:40:29.634Z,57.00
2023-02-05T02:43:12.955Z,57.00
2023-02-05T02:45:49.433Z,57.00
2023-02-05T02:48:20.500Z,56.90
2023-02-05T02:50:50.135Z,56.90
2023-02-05T02:53:25.192Z,56.80
2023-02-05T02:55:52.886Z,56.80
2023-02-05T02:58:37.673Z,56.80
2023-02-05T03:01:06.901Z,56.80
2023-02-05T03:03:38.461Z,56.80
2023-02-05T03:06:07.633Z,56.80
2023-02-05T03:08:50.385Z,56.80
2023-02-05T03:11:17.087Z,56.80
2023-02-05T03:13:44.582Z,56.70
2023-02-05T03:16:14.339Z,56.60
2023-02-05T03:18:41.333Z,56.70
2023-02-05T03:21:30.629Z,56.60
2023-02-05T03:23:57.355Z,56.60
2023-02-05T03:26:28.648Z,56.50
2023-02-05T03:28:56.839Z,56.60
2023-02-05T03:31:35.777Z,56.40
2023-02-05T03:34:32.664Z,56.50
2023-02-05T03:37:31.324Z,56.50
2023-02-05T03:40:09.759Z,56.50
2023-02-05T03:42:42.768Z,56.50
2023-02-05T03:45:26.082Z,56.50
2023-02-05T03:48:21.970Z,56.50
2023-02-05T03:51:02.382Z,56.40
2023-02-05T03:54:03.217Z,56.40
2023-02-05T03:57:00.845Z,56.40
2023-02-05T03:59:30.054Z,56.40
2023-02-05T04:01:57.355Z,56.40
2023-02-05T04:04:24.159Z,56.40
2023-02-05T04:06:52.779Z,56.40
2023-02-05T04:09:19.856Z,56.30
2023-02-05T04:11:46.499Z,56.40
2023-02-05T04:14:13.120Z,56.30
2023-02-05T04:16:42.186Z,56.40
2023-02-05T04:19:08.904Z,56.40
2023-02-05T04:21:35.512Z,56.40
2023-02-05T04:24:02.136Z,56.40
2023-02-05T04:26:28.864Z,56.40
2023-02-05T04:28:55.645Z,56.50
2023-02-05T04:31:22.318Z,56.40
2023-02-05T04:33:48.991Z,56.50
2023-02-05T04:36:15.649Z,56.50
2023-02-05T04:38:42.326Z,56.50
2023-02-05T04:41:09.351Z,56.50
2023-02-05T04:43:36.320Z,56.60
2023-02-05T04:46:10.795Z,56.50
2023-02-05T04:48:38.790Z,56.40
2023-02-05T04:51:10.318Z,56.40
2023-02-05T04:53:37.599Z,56.40
2023-02-05T04:56:09.691Z,56.50
2023-02-05T04:58:36.578Z,56.40
2023-02-05T05:01:03.591Z,56.50
2023-02-05T05:03:30.618Z,56.40
2023-02-05T05:05:57.210Z,56.40
2023-02-05T05:08:23.827Z,56.40
2023-02-05T05:10:50.460Z,56.40
2023-02-05T05:13:17.149Z,56.30
2023-02-05T05:15:43.818Z,56.30
2023-02-05T05:18:10.483Z,56.20
2023-02-05T05:20:37.096Z,56.30
2023-02-05T05:23:03.725Z,56.30
2023-02-05T05:25:30.466Z,56.20
2023-02-05T05:27:57.235Z,56.30
2023-02-05T05:30:23.817Z,56.30
2023-02-05T05:32:50.453Z,56.30
2023-02-05T05:35:17.208Z,56.20
2023-02-05T05:37:43.905Z,56.30
2023-02-05T05:40:31.627Z,56.10
2023-02-05T05:43:17.215Z,56.10
2023-02-05T05:45:44.028Z,55.90
2023-02-05T05:48:10.742Z,56.00
2023-02-05T05:50:37.382Z,56.00
2023-02-05T05:53:03.957Z,56.00
2023-02-05T05:55:30.664Z,56.00
2023-02-05T05:57:57.303Z,56.00
2023-02-05T06:00:24.112Z,56.00
2023-02-05T06:02:50.968Z,56.00
2023-02-05T06:05:17.581Z,56.00
2023-02-05T06:07:44.204Z,56.00
2023-02-05T06:10:11.081Z,56.00
2023-02-05T06:12:37.663Z,56.00
2023-02-05T06:15:04.927Z,56.00
2023-02-05T06:17:31.505Z,56.00
2023-02-05T06:19:58.092Z,56.00
2023-02-05T06:22:24.720Z,56.00
2023-02-05T06:24:51.343Z,55.90
2023-02-05T06:27:18.056Z,55.90
2023-02-05T06:29:44.714Z,56.00
2023-02-05T06:32:11.299Z,55.90
2023-02-05T06:34:37.863Z,56.00
2023-02-05T06:37:04.438Z,56.00
2023-02-05T06:39:31.083Z,55.90
2023-02-05T06:41:57.691Z,55.90
2023-02-05T06:44:24.404Z,55.80
2023-02-05T06:46:50.969Z,55.80
2023-02-05T06:49:17.609Z,55.80
2023-02-05T06:51:44.224Z,55.80
2023-02-05T06:54:10.837Z,55.90
2023-02-05T06:56:37.452Z,55.80
2023-02-05T06:59:04.395Z,55.90
2023-02-05T07:01:31.151Z,57.70
2023-02-05T07:03:58.012Z,45.10
2023-02-05T07:06:26.039Z,48.40
2023-02-05T07:08:53.771Z,50.30
2023-02-05T07:11:21.191Z,53.90
2023-02-05T07:13:47.949Z,56.30
2023-02-05T07:16:14.852Z,56.00
2023-02-05T07:18:41.689Z,56.00
2023-02-05T07:21:10.075Z,56.20
2023-02-05T07:23:37.018Z,55.90
2023-02-05T07:26:10.391Z,56.10
2023-02-05T07:28:37.450Z,56.10
2023-02-05T07:31:08.554Z,56.20
2023-02-05T07:33:38.696Z,56.20
2023-02-05T07:36:07.039Z,56.30
2023-02-05T07:38:34.286Z,56.40
2023-02-05T07:41:05.048Z,56.50
2023-02-05T07:43:32.277Z,56.60
2023-02-05T07:46:07.493Z,56.50
2023-02-05T07:48:34.901Z,56.60
2023-02-05T07:51:01.795Z,56.80
2023-02-05T07:53:28.503Z,56.80
2023-02-05T07:55:55.262Z,56.90
2023-02-05T07:58:22.155Z,57.00
2023-02-05T08:00:48.904Z,57.10
2023-02-05T08:03:15.582Z,57.20
2023-02-05T08:05:42.203Z,57.40
2023-02-05T08:08:09.956Z,57.50
2023-02-05T08:10:36.549Z,57.60
2023-02-05T08:13:03.252Z,57.90
2023-02-05T08:15:29.852Z,58.10
2023-02-05T08:17:56.496Z,58.00
2023-02-05T08:20:23.092Z,58.00
2023-02-05T08:22:49.720Z,58.20
2023-02-05T08:25:16.417Z,58.10
2023-02-05T08:27:43.632Z,58.20
2023-02-05T08:30:13.606Z,58.40
2023-02-05T08:32:40.266Z,57.90
2023-02-05T08:35:07.067Z,58.00
2023-02-05T08:37:33.704Z,58.10
2023-02-05T08:40:00.581Z,58.10
2023-02-05T08:42:27.245Z,58.20
2023-02-05T08:44:56.080Z,58.20
2023-02-05T08:47:22.793Z,58.30
2023-02-05T08:49:49.502Z,58.30
2023-02-05T08:52:16.280Z,58.30
2023-02-05T08:54:43.057Z,58.50
2023-02-05T08:57:10.019Z,58.50
2023-02-05T08:59:36.593Z,58.40
2023-02-05T09:02:03.919Z,58.50
2023-02-05T09:04:31.338Z,58.50
2023-02-05T09:06:58.075Z,58.50
2023-02-05T09:09:24.662Z,58.50
2023-02-05T09:11:51.394Z,58.60
2023-02-05T09:14:17.993Z,58.60
2023-02-05T09:16:44.756Z,58.60
2023-02-05T09:19:11.470Z,58.80
2023-02-05T09:21:38.093Z,58.80
2023-02-05T09:24:04.961Z,58.90
2023-02-05T09:26:31.679Z,58.90
2023-02-05T09:28:58.811Z,58.80
2023-02-05T09:31:25.574Z,58.80
2023-02-05T09:33:52.333Z,58.80
2023-02-05T09:36:21.794Z,58.90
2023-02-05T09:38:49.354Z,58.90
2023-02-05T09:41:31.618Z,58.90
2023-02-05T09:43:58.159Z,58.80
2023-02-05T09:46:42.762Z,58.90
2023-02-05T09:49:27.530Z,59.00
2023-02-05T09:52:02.127Z,59.00
2023-02-05T09:54:33.598Z,59.00
2023-02-05T09:57:05.679Z,59.00
2023-02-05T09:59:33.230Z,59.00
2023-02-05T10:02:26.714Z,59.10
2023-02-05T10:04:54.836Z,59.00
2023-02-05T10:07:32.399Z,59.00
2023-02-05T10:09:59.840Z,59.00
2023-02-05T10:12:32.000Z,56.70
2023-02-05T10:15:13.946Z,49.30
2023-02-05T10:17:58.080Z,55.50
2023-02-05T10:20:42.052Z,54.70
2023-02-05T10:23:38.225Z,53.90
2023-02-05T10:26:13.343Z,54.60
2023-02-05T10:28:55.318Z,56.40
2023-02-05T10:31:54.248Z,57.40
2023-02-05T10:34:54.985Z,56.60
2023-02-05T10:37:39.284Z,57.10
2023-02-05T10:40:18.073Z,57.10
2023-02-05T10:43:21.147Z,56.90
2023-02-05T10:45:49.609Z,57.20
2023-02-05T10:48:39.508Z,57.70
2023-02-05T10:51:15.161Z,59.70
2023-02-05T10:53:42.316Z,58.80
2023-02-05T10:56:17.626Z,59.20
2023-02-05T10:58:58.048Z,57.20
2023-02-05T11:01:29.048Z,57.20
2023-02-05T11:03:58.851Z,61.30
2023-02-05T11:06:27.351Z,57.50
2023-02-05T11:08:54.045Z,57.80
2023-02-05T11:11:28.256Z,57.40
2023-02-05T11:14:06.105Z,50.50
2023-02-05T11:16:42.846Z,72.70
2023-02-05T11:19:23.128Z,74.40
2023-02-05T11:21:58.432Z,77.80
2023-02-05T11:24:34.531Z,77.00
2023-02-05T11:27:16.230Z,75.30
2023-02-05T11:29:43.274Z,74.80
2023-02-05T11:32:36.089Z,72.10
2023-02-05T11:35:22.234Z,70.50
2023-02-05T11:38:13.652Z,70.90
2023-02-05T11:40:40.440Z,70.90
2023-02-05T11:43:21.032Z,71.20
2023-02-05T11:45:51.244Z,71.80
2023-02-05T11:48:57.802Z,71.50
2023-02-05T11:51:44.640Z,71.50
2023-02-05T11:54:31.768Z,71.70
2023-02-05T11:57:17.088Z,72.00
2023-02-05T11:59:59.764Z,72.60
2023-02-05T12:02:28.443Z,75.90
2023-02-05T12:05:13.678Z,72.70
2023-02-05T12:07:50.380Z,79.10
2023-02-05T12:10:19.764Z,74.70
2023-02-05T12:13:15.534Z,74.40
2023-02-05T12:15:50.775Z,79.50
2023-02-05T12:18:43.404Z,72.60
2023-02-05T12:21:35.918Z,72.70
2023-02-05T12:24:18.158Z,72.70
2023-02-05T12:26:45.351Z,72.60
2023-02-05T12:29:32.915Z,72.40
2023-02-05T12:32:25.408Z,72.30
2023-02-05T12:35:10.575Z,72.20
2023-02-05T12:38:21.142Z,70.50
2023-02-05T12:41:16.042Z,70.70
2023-02-05T12:43:47.305Z,70.60
2023-02-05T12:47:15.108Z,70.70
2023-02-05T12:50:10.553Z,70.50
2023-02-05T12:52:55.643Z,69.30
2023-02-05T12:55:54.375Z,69.60
2023-02-05T12:58:21.578Z,69.70
2023-02-05T13:00:50.292Z,69.10
2023-02-05T13:03:29.240Z,69.30
2023-02-05T13:06:01.548Z,69.10
2023-02-05T13:08:30.814Z,68.80
2023-02-05T13:11:05.826Z,68.90
2023-02-05T13:13:39.522Z,68.60
2023-02-05T13:16:11.377Z,68.40
2023-02-05T13:18:46.840Z,68.40
2023-02-05T13:21:38.531Z,68.40
2023-02-05T13:24:42.820Z,68.80
2023-02-05T13:27:58.748Z,68.70
2023-02-05T13:30:31.997Z,69.40
2023-02-05T13:33:03.323Z,69.00
2023-02-05T13:35:36.118Z,69.70
2023-02-05T13:38:33.688Z,70.10
2023-02-05T13:41:29.477Z,68.80
2023-02-05T13:44:23.813Z,68.50
2023-02-05T13:47:19.797Z,68.90
2023-02-05T13:50:01.588Z,68.90
2023-02-05T13:52:38.430Z,68.90
2023-02-05T13:55:19.719Z,68.80
2023-02-05T13:58:20.356Z,69.00
2023-02-05T14:00:55.657Z,68.80
2023-02-05T14:03:55.051Z,69.00
2023-02-05T14:06:29.602Z,68.70
2023-02-05T14:09:01.850Z,69.30
2023-02-05T14:11:29.569Z,69.10
2023-02-05T14:14:23.573Z,68.80
2023-02-05T14:16:51.901Z,69.30
2023-02-05T14:19:55.899Z,70.70
2023-02-05T14:22:42.546Z,70.90
2023-02-05T14:25:42.492Z,70.90
2023-02-05T14:28:15.115Z,70.40
2023-02-05T14:30:50.789Z,70.70
2023-02-05T14:33:38.282Z,70.40
2023-02-05T14:36:21.410Z,70.80
2023-02-05T14:39:06.050Z,71.90
2023-02-05T14:41:43.959Z,72.20
2023-02-05T14:44:33.069Z,61.00
2023-02-05T14:49:49.007Z,56.80
2023-02-05T14:52:26.893Z,55.60
2023-02-05T14:55:04.836Z,56.30
2023-02-05T14:57:49.813Z,55.50
2023-02-05T15:00:22.694Z,55.40
2023-02-05T15:03:02.164Z,53.90
2023-02-05T15:05:46.944Z,53.70
2023-02-05T15:08:28.466Z,54.30
2023-02-05T15:11:23.223Z,55.00
2023-02-05T15:14:21.144Z,55.10
2023-02-05T15:17:10.660Z,55.20
2023-02-05T15:19:51.180Z,56.30
2023-02-05T15:22:23.240Z,57.30
2023-02-05T15:24:50.357Z,58.90
2023-02-05T15:27:23.415Z,60.90
2023-02-05T15:29:57.244Z,56.40
2023-02-05T15:32:36.014Z,57.50
2023-02-05T15:35:12.728Z,58.80
2023-02-05T15:37:46.693Z,55.60
2023-02-05T15:40:24.875Z,55.30
2023-02-05T15:42:57.274Z,55.00
2023-02-05T15:45:37.431Z,55.60
2023-02-05T15:48:17.804Z,55.70
2023-02-05T15:50:52.171Z,55.20
2023-02-05T15:53:35.694Z,55.30
2023-02-05T15:56:29.354Z,55.30
2023-02-05T15:59:03.485Z,55.30
2023-02-05T16:01:47.802Z,55.40
2023-02-05T16:04:34.849Z,55.40
2023-02-05T16:07:02.618Z,56.10
2023-02-05T16:09:30.986Z,56.50
2023-02-05T16:12:09.760Z,55.10
2023-02-05T16:14:36.313Z,55.20
2023-02-05T16:17:08.962Z,56.30
2023-02-05T16:19:45.920Z,56.80
2023-02-05T16:22:30.929Z,56.20
2023-02-05T16:25:01.285Z,56.50
2023-02-05T16:27:42.463Z,55.20
2023-02-05T16:30:21.111Z,54.90
2023-02-05T16:32:48.490Z,53.50
2023-02-05T16:35:22.022Z,53.00
2023-02-05T16:37:48.619Z,52.80
2023-02-05T16:40:16.848Z,52.60
2023-02-05T16:42:46.058Z,52.60
2023-02-05T16:45:24.472Z,52.60
2023-02-05T16:48:27.050Z,52.60
2023-02-05T16:50:54.406Z,52.60
2023-02-05T16:53:32.270Z,44.80
2023-02-05T16:56:01.860Z,47.00
2023-02-05T16:58:42.694Z,46.90
2023-02-05T17:01:09.852Z,50.60
2023-02-05T17:03:39.393Z,57.40
2023-02-05T17:06:15.466Z,54.40
2023-02-05T17:08:45.279Z,52.70
2023-02-05T17:11:39.576Z,53.20
2023-02-05T17:14:29.447Z,52.40
2023-02-05T17:17:02.187Z,51.50
2023-02-05T17:19:31.533Z,51.70
2023-02-05T17:22:27.809Z,58.00
2023-02-05T17:24:54.951Z,51.70
2023-02-05T17:27:35.831Z,52.20
2023-02-05T17:30:04.394Z,52.60
2023-02-05T17:32:32.246Z,52.70
2023-02-05T17:35:00.038Z,52.70
2023-02-05T17:37:26.752Z,53.90
2023-02-05T17:39:55.143Z,57.10
2023-02-05T17:42:24.068Z,53.50
2023-02-05T17:44:51.520Z,53.00
2023-02-05T17:47:18.659Z,53.10
2023-02-05T17:49:45.291Z,54.70
2023-02-05T17:52:12.120Z,54.10
2023-02-05T17:54:38.778Z,52.40
2023-02-05T17:57:17.509Z,52.20
2023-02-05T17:59:44.925Z,52.10
2023-02-05T18:02:12.446Z,47.60
2023-02-05T18:04:40.310Z,49.50
2023-02-05T18:07:50.479Z,50.30
2023-02-05T18:10:23.421Z,51.00
2023-02-05T18:12:50.331Z,51.40
2023-02-05T18:15:17.018Z,51.50
2023-02-05T18:17:43.835Z,51.60
2023-02-05T18:20:12.601Z,51.60
2023-02-05T18:22:39.262Z,51.70
2023-02-05T18:25:06.882Z,51.80
2023-02-05T18:27:33.884Z,51.90
2023-02-05T18:30:00.598Z,52.00
2023-02-05T18:32:27.802Z,52.10
2023-02-05T18:34:54.466Z,52.10
2023-02-05T18:37:21.064Z,52.10
2023-02-05T18:39:47.994Z,52.30
2023-02-05T18:42:14.796Z,52.30
2023-02-05T18:44:41.402Z,52.40
2023-02-05T18:47:08.090Z,53.00
2023-02-05T18:49:35.679Z,52.40
2023-02-05T18:52:02.864Z,52.40
2023-02-05T18:54:29.528Z,52.50
2023-02-05T18:56:56.953Z,52.60
2023-02-05T18:59:25.835Z,52.60
2023-02-05T19:01:53.187Z,52.50
2023-02-05T19:04:20.688Z,52.80
2023-02-05T19:06:53.245Z,52.90
2023-02-05T19:09:22.264Z,53.10
2023-02-05T19:11:50.069Z,51.10
2023-02-05T19:14:22.490Z,49.50
2023-02-05T19:16:50.525Z,50.70
2023-02-05T19:19:21.317Z,51.80
2023-02-05T19:21:54.512Z,52.40
2023-02-05T19:24:21.804Z,52.50
2023-02-05T19:26:49.867Z,52.60
2023-02-05T19:29:19.304Z,52.70
2023-02-05T19:31:46.451Z,52.60
2023-02-05T19:34:13.043Z,52.70
2023-02-05T19:36:39.852Z,52.60
2023-02-05T19:39:08.401Z,52.60
2023-02-05T19:41:36.454Z,52.70
2023-02-05T19:44:06.391Z,52.80
2023-02-05T19:46:38.741Z,53.00
2023-02-05T19:49:11.674Z,52.90
2023-02-05T19:51:38.395Z,53.00
2023-02-05T19:54:06.629Z,53.00
2023-02-05T19:56:35.639Z,52.80
2023-02-05T19:59:02.476Z,52.90
2023-02-05T20:01:32.470Z,52.80
2023-02-05T20:04:05.141Z,52.80
2023-02-05T20:06:31.857Z,52.80
2023-02-05T20:09:01.430Z,52.70
2023-02-05T20:11:30.289Z,50.80
2023-02-05T20:14:02.174Z,51.70
2023-02-05T20:16:29.195Z,52.20
2023-02-05T20:18:58.233Z,52.40
2023-02-05T20:21:26.560Z,52.60
2023-02-05T20:23:53.950Z,52.70
2023-02-05T20:26:22.218Z,52.70
2023-02-05T20:29:11.396Z,52.80
2023-02-05T20:31:42.756Z,52.90
2023-02-05T20:34:22.060Z,53.20
2023-02-05T20:36:52.506Z,53.50
2023-02-05T20:39:20.810Z,53.60
2023-02-05T20:41:49.925Z,53.50
2023-02-05T20:44:17.944Z,53.50
2023-02-05T20:46:44.619Z,53.50
2023-02-05T20:49:11.677Z,53.60
2023-02-05T20:51:38.759Z,53.60
2023-02-05T20:54:05.936Z,53.60
2023-02-05T20:56:32.691Z,53.60
2023-02-05T20:59:01.503Z,53.70
2023-02-05T21:01:30.082Z,53.70
2023-02-05T21:03:58.912Z,53.80
2023-02-05T21:06:27.116Z,53.90
2023-02-05T21:08:54.514Z,53.80
2023-02-05T21:11:23.359Z,53.90
2023-02-05T21:13:50.816Z,54.10
2023-02-05T21:16:19.381Z,53.80
2023-02-05T21:18:48.210Z,54.00
2023-02-05T21:21:21.179Z,54.10
2023-02-05T21:23:48.394Z,54.60
2023-02-05T21:26:30.069Z,54.80
2023-02-05T21:28:59.306Z,57.60
2023-02-05T21:31:33.999Z,56.40
2023-02-05T21:34:05.040Z,54.90
2023-02-05T21:36:32.179Z,54.70
2023-02-05T21:38:59.627Z,55.50
2023-02-05T21:41:26.628Z,55.50
2023-02-05T21:43:55.463Z,55.30
2023-02-05T21:46:23.777Z,55.40
2023-02-05T21:48:53.915Z,55.20
2023-02-05T21:51:23.714Z,55.10
2023-02-05T21:53:57.106Z,54.80
2023-02-05T21:56:25.596Z,54.80
2023-02-05T21:58:52.248Z,54.30
2023-02-05T22:01:21.685Z,55.10
2023-02-05T22:03:51.560Z,54.50
2023-02-05T22:06:21.252Z,54.30
2023-02-05T22:08:50.476Z,53.90
2023-02-05T22:11:19.293Z,53.90
2023-02-05T22:13:48.036Z,54.00
2023-02-05T22:16:19.984Z,54.30
2023-02-05T22:18:47.500Z,54.30
2023-02-05T22:21:26.945Z,54.30
2023-02-05T22:23:55.380Z,54.50
2023-02-05T22:26:24.736Z,54.60
2023-02-05T22:28:51.553Z,54.70
2023-02-05T22:31:20.109Z,54.80
2023-02-05T22:33:48.423Z,54.80
2023-02-05T22:36:16.944Z,54.70
2023-02-05T22:38:43.961Z,54.70
2023-02-05T22:41:16.237Z,54.80
2023-02-05T22:43:42.952Z,54.80
2023-02-05T22:46:11.094Z,54.90
2023-02-05T22:48:39.689Z,54.90
2023-02-05T22:51:08.807Z,54.90
2023-02-05T22:53:35.466Z,55.00
2023-02-05T22:56:07.741Z,55.00
2023-02-05T22:58:35.249Z,55.10
2023-02-05T23:01:17.006Z,55.10
2023-02-05T23:03:45.738Z,55.00
2023-02-05T23:06:17.788Z,54.90
2023-02-05T23:08:44.668Z,55.00
2023-02-05T23:11:13.275Z,55.00
2023-02-05T23:13:40.495Z,55.10
2023-02-05T23:16:16.137Z,55.20
2023-02-05T23:18:43.840Z,55.10
2023-02-05T23:21:13.977Z,55.30
2023-02-05T23:23:41.135Z,55.30
2023-02-05T23:26:22.772Z,55.30
2023-02-05T23:28:50.191Z,55.40
2023-02-05T23:31:17.222Z,55.20
2023-02-05T23:33:44.475Z,55.10
2023-02-05T23:36:11.326Z,55.20
2023-02-05T23:38:38.738Z,55.20
2023-02-05T23:41:05.697Z,55.20
2023-02-05T23:43:33.727Z,55.10
2023-02-05T23:46:00.796Z,55.20
2023-02-05T23:48:27.774Z,55.10
2023-02-05T23:50:56.801Z,55.20
2023-02-05T23:53:23.714Z,55.20
2023-02-05T23:55:51.946Z,55.20
2023-02-05T23:58:19.912Z,55.40
